createdAt,value
2022-12-07T00:01:48.328Z,13.13
2022-12-07T00:04:18.661Z,12.85
2022-12-07T00:06:52.627Z,13.65
2022-12-07T00:09:21.072Z,12.45
2022-12-07T00:11:51.479Z,13.38
2022-12-07T00:14:20.300Z,13.68
2022-12-07T00:16:51.447Z,12.15
2022-12-07T00:19:20.092Z,13.20
2022-12-07T00:21:49.561Z,11.65
2022-12-07T00:24:17.705Z,13.55
2022-12-07T00:26:46.309Z,13.07
2022-12-07T00:29:18.208Z,13.52
2022-12-07T00:31:46.582Z,13.90
2022-12-07T00:34:17.321Z,12.15
2022-12-07T00:36:45.399Z,12.90
2022-12-07T00:39:14.896Z,12.85
2022-12-07T00:41:43.097Z,12.73
2022-12-07T00:44:11.254Z,13.15
2022-12-07T00:46:39.471Z,13.68
2022-12-07T00:49:07.701Z,13.85
2022-12-07T00:51:37.033Z,13.05
2022-12-07T00:54:05.367Z,13.10
2022-12-07T00:56:35.625Z,12.65
2022-12-07T00:59:05.477Z,13.05
2022-12-07T01:01:36.305Z,13.55
2022-12-07T01:04:10.832Z,13.77
2022-12-07T01:06:39.048Z,12.85
2022-12-07T01:09:07.224Z,12.88
2022-12-07T01:11:36.602Z,13.05
2022-12-07T01:14:05.552Z,13.18
2022-12-07T01:16:35.024Z,12.32
2022-12-07T01:19:05.742Z,12.43
2022-12-07T01:21:38.344Z,12.45
2022-12-07T01:24:08.966Z,13.40
2022-12-07T01:26:38.828Z,12.10
2022-12-07T01:29:07.389Z,11.68
2022-12-07T01:31:36.081Z,12.55
2022-12-07T01:34:06.726Z,13.25
2022-12-07T01:36:36.833Z,12.50
2022-12-07T01:39:08.862Z,12.57
2022-12-07T01:41:41.472Z,12.88
2022-12-07T01:44:15.166Z,12.32
2022-12-07T01:46:46.509Z,12.00
2022-12-07T01:49:19.849Z,12.88
2022-12-07T01:51:49.692Z,13.25
2022-12-07T01:54:18.831Z,12.20
2022-12-07T01:56:52.892Z,13.13
2022-12-07T01:59:25.577Z,14.65
2022-12-07T02:01:54.802Z,13.57
2022-12-07T02:04:23.893Z,12.82
2022-12-07T02:06:53.519Z,11.48
2022-12-07T02:09:21.540Z,13.52
2022-12-07T02:11:51.597Z,12.88
2022-12-07T02:14:19.764Z,13.93
2022-12-07T02:17:01.285Z,13.75
2022-12-07T02:20:02.393Z,13.93
2022-12-07T02:22:54.972Z,13.38
2022-12-07T02:25:34.010Z,13.55
2022-12-07T02:28:08.794Z,12.98
2022-12-07T02:30:45.595Z,13.02
2022-12-07T02:33:18.572Z,13.73
2022-12-07T02:35:54.876Z,13.13
2022-12-07T02:38:31.289Z,13.68
2022-12-07T02:41:07.807Z,12.80
2022-12-07T02:43:40.298Z,12.15
2022-12-07T02:46:14.582Z,11.75
2022-12-07T02:48:45.234Z,12.18
2022-12-07T02:51:14.009Z,12.38
2022-12-07T02:53:43.881Z,11.95
2022-12-07T02:56:33.011Z,11.30
2022-12-07T02:59:13.025Z,11.32
2022-12-07T03:01:52.489Z,11.90
2022-12-07T03:04:35.589Z,12.10
2022-12-07T03:07:11.195Z,12.18
2022-12-07T03:09:47.783Z,13.13
2022-12-07T03:12:20.922Z,13.52
2022-12-07T03:14:55.028Z,12.88
2022-12-07T03:17:28.603Z,12.75
2022-12-07T03:20:01.572Z,13.10
2022-12-07T03:22:33.667Z,12.70
2022-12-07T03:25:06.228Z,11.50
2022-12-07T03:27:40.733Z,10.52
2022-12-07T03:30:12.227Z,11.10
2022-12-07T03:32:45.867Z,11.98
2022-12-07T03:35:18.424Z,11.73
2022-12-07T03:37:51.740Z,11.30
2022-12-07T03:40:27.263Z,11.25
2022-12-07T03:42:56.938Z,13.68
2022-12-07T03:45:32.611Z,12.55
2022-12-07T03:48:09.858Z,12.93
2022-12-07T03:50:45.903Z,13.88
2022-12-07T03:53:18.884Z,12.60
2022-12-07T03:55:54.518Z,12.43
2022-12-07T03:58:24.387Z,12.68
2022-12-07T04:00:53.498Z,11.73
2022-12-07T04:03:22.949Z,14.02
2022-12-07T04:05:51.244Z,14.63
2022-12-07T04:08:19.315Z,14.68
2022-12-07T04:10:47.410Z,13.57
2022-12-07T04:13:15.487Z,13.50
2022-12-07T04:15:43.563Z,15.32
2022-12-07T04:18:11.599Z,12.77
2022-12-07T04:20:40.992Z,14.13
2022-12-07T04:23:09.250Z,13.23
2022-12-07T04:25:37.379Z,13.02
2022-12-07T04:28:05.731Z,13.50
2022-12-07T04:30:33.825Z,13.38
2022-12-07T04:33:02.974Z,13.23
2022-12-07T04:35:31.030Z,12.77
2022-12-07T04:38:00.332Z,12.60
2022-12-07T04:40:29.499Z,11.98
2022-12-07T04:42:57.508Z,12.60
2022-12-07T04:45:25.500Z,12.13
2022-12-07T04:47:55.800Z,11.15
2022-12-07T04:50:23.863Z,10.57
2022-12-07T04:52:51.959Z,11.75
2022-12-07T04:55:21.668Z,10.43
2022-12-07T04:57:49.672Z,11.52
2022-12-07T05:00:19.825Z,11.85
2022-12-07T05:02:47.947Z,12.05
2022-12-07T05:05:16.124Z,12.35
2022-12-07T05:07:44.149Z,10.52
2022-12-07T05:10:12.700Z,10.73
2022-12-07T05:12:42.255Z,10.23
2022-12-07T05:15:11.075Z,11.50
2022-12-07T05:17:39.165Z,11.77
2022-12-07T05:20:08.963Z,12.57
2022-12-07T05:22:37.427Z,12.25
2022-12-07T05:25:11.610Z,11.38
2022-12-07T05:27:41.131Z,11.70
2022-12-07T05:30:10.236Z,11.75
2022-12-07T05:32:38.238Z,11.05
2022-12-07T05:35:07.148Z,11.52
2022-12-07T05:37:35.180Z,11.50
2022-12-07T05:40:03.442Z,11.82
2022-12-07T05:42:31.825Z,11.48
2022-12-07T05:45:01.339Z,10.52
2022-12-07T05:47:29.444Z,10.10
2022-12-07T05:49:57.463Z,10.65
2022-12-07T05:52:25.532Z,10.35
2022-12-07T05:54:53.553Z,9.52
2022-12-07T05:57:21.714Z,10.82
2022-12-07T05:59:48.797Z,9.98
2022-12-07T06:02:19.775Z,9.73
2022-12-07T06:04:48.650Z,10.68
2022-12-07T06:07:18.224Z,10.48
2022-12-07T06:09:46.324Z,11.43
2022-12-07T06:12:32.957Z,10.70
2022-12-07T06:15:01.272Z,10.82
2022-12-07T06:17:30.964Z,10.55
2022-12-07T06:19:59.523Z,11.10
2022-12-07T06:22:28.237Z,11.25
2022-12-07T06:24:58.609Z,10.40
2022-12-07T06:27:26.749Z,10.07
2022-12-07T06:29:54.869Z,10.63
2022-12-07T06:32:22.963Z,10.65
2022-12-07T06:34:56.865Z,10.73
2022-12-07T06:37:25.044Z,10.13
2022-12-07T06:39:53.179Z,9.77
2022-12-07T06:42:21.319Z,10.15
2022-12-07T06:44:49.892Z,9.43
2022-12-07T06:47:39.992Z,9.98
2022-12-07T06:50:09.595Z,11.82
2022-12-07T06:52:37.595Z,10.02
2022-12-07T06:55:06.208Z,10.35
2022-12-07T06:57:34.271Z,9.80
2022-12-07T07:00:03.361Z,9.80
2022-12-07T07:02:31.776Z,9.50
2022-12-07T07:04:59.915Z,10.27
2022-12-07T07:07:29.457Z,10.60
2022-12-07T07:09:57.920Z,10.30
2022-12-07T07:12:26.142Z,9.13
2022-12-07T07:14:54.163Z,10.77
2022-12-07T07:17:22.233Z,11.80
2022-12-07T07:19:50.359Z,10.90
2022-12-07T07:22:18.524Z,10.65
2022-12-07T07:24:48.001Z,11.82
2022-12-07T07:27:16.058Z,10.95
2022-12-07T07:29:44.205Z,11.20
2022-12-07T07:32:13.171Z,10.98
2022-12-07T07:34:42.083Z,9.63
2022-12-07T07:37:11.923Z,10.70
2022-12-07T07:39:40.219Z,10.88
2022-12-07T07:42:09.954Z,11.55
2022-12-07T07:44:38.759Z,11.65
2022-12-07T07:47:06.998Z,11.25
2022-12-07T07:49:35.665Z,10.95
2022-12-07T07:52:04.183Z,10.45
2022-12-07T07:54:32.222Z,10.98
2022-12-07T07:57:00.625Z,10.90
2022-12-07T07:59:30.503Z,10.98
2022-12-07T08:01:58.804Z,11.32
2022-12-07T08:04:31.013Z,10.95
2022-12-07T08:06:59.283Z,10.20
2022-12-07T08:09:27.377Z,10.85
2022-12-07T08:11:55.507Z,10.18
2022-12-07T08:14:25.055Z,11.93
2022-12-07T08:16:54.748Z,12.18
2022-12-07T08:19:22.926Z,11.02
2022-12-07T08:21:51.576Z,11.35
2022-12-07T08:24:20.199Z,11.43
2022-12-07T08:26:48.287Z,11.85
2022-12-07T08:29:16.478Z,10.90
2022-12-07T08:31:44.727Z,11.02
2022-12-07T08:34:15.105Z,11.88
2022-12-07T08:36:43.383Z,11.45
2022-12-07T08:42:00.245Z,11.73
2022-12-07T08:44:28.407Z,11.73
2022-12-07T08:47:00.582Z,12.07
2022-12-07T08:49:35.222Z,11.68
2022-12-07T08:52:06.265Z,13.43
2022-12-07T08:54:37.296Z,11.32
2022-12-07T08:57:07.182Z,10.20
2022-12-07T08:59:37.409Z,12.32
2022-12-07T09:02:05.985Z,10.60
2022-12-07T09:04:35.624Z,9.63
2022-12-07T09:07:04.182Z,10.45
2022-12-07T09:09:32.233Z,9.95
2022-12-07T09:12:00.525Z,8.70
2022-12-07T09:14:29.116Z,9.07
2022-12-07T09:16:57.327Z,8.02
2022-12-07T09:19:25.541Z,9.02
2022-12-07T09:21:54.938Z,7.78
2022-12-07T09:24:23.632Z,9.15
2022-12-07T09:26:51.750Z,6.38
2022-12-07T09:29:19.940Z,7.55
2022-12-07T09:31:48.135Z,7.72
2022-12-07T09:34:22.849Z,7.90
2022-12-07T09:36:51.070Z,9.50
2022-12-07T09:39:20.683Z,9.40
2022-12-07T09:41:49.039Z,8.95
2022-12-07T09:44:24.060Z,9.75
2022-12-07T09:46:54.071Z,11.15
2022-12-07T09:49:25.118Z,10.00
2022-12-07T09:52:03.610Z,10.18
2022-12-07T09:54:35.993Z,8.88
2022-12-07T09:57:04.154Z,10.05
2022-12-07T09:59:36.590Z,9.40
2022-12-07T10:02:30.023Z,8.85
2022-12-07T10:05:00.795Z,9.40
2022-12-07T10:07:29.389Z,9.68
2022-12-07T10:09:58.967Z,9.35
2022-12-07T10:12:27.046Z,8.10
2022-12-07T10:15:12.917Z,9.48
2022-12-07T10:17:44.746Z,6.65
2022-12-07T10:20:33.566Z,8.45
2022-12-07T10:23:05.559Z,8.18
2022-12-07T10:25:42.602Z,8.50
2022-12-07T10:28:18.460Z,8.00
2022-12-07T10:30:57.711Z,7.60
2022-12-07T10:33:36.890Z,6.55
2022-12-07T10:36:20.557Z,6.88
2022-12-07T10:38:50.586Z,7.63
2022-12-07T10:41:22.049Z,6.40
2022-12-07T10:43:52.812Z,6.47
2022-12-07T10:46:55.601Z,6.53
2022-12-07T10:49:55.670Z,6.53
2022-12-07T10:52:40.290Z,6.78
2022-12-07T10:55:18.421Z,6.97
2022-12-07T10:58:07.345Z,6.60
2022-12-07T11:00:42.010Z,7.55
2022-12-07T11:06:13.922Z,6.90
2022-12-07T11:08:55.678Z,6.78
2022-12-07T11:11:33.473Z,7.30
2022-12-07T11:14:13.773Z,6.68
2022-12-07T11:17:07.190Z,7.40
2022-12-07T11:19:52.398Z,6.00
2022-12-07T11:22:29.031Z,6.45
2022-12-07T11:25:04.826Z,6.97
2022-12-07T11:27:42.106Z,7.07
2022-12-07T11:30:21.785Z,6.57
2022-12-07T11:33:09.793Z,6.35
2022-12-07T11:35:47.379Z,6.90
2022-12-07T11:38:24.670Z,6.82
2022-12-07T11:41:13.942Z,6.20
2022-12-07T11:43:54.603Z,5.00
2022-12-07T11:46:29.680Z,6.07
2022-12-07T11:51:41.472Z,5.03
2022-12-07T11:54:18.073Z,4.85
2022-12-07T11:56:48.020Z,5.50
2022-12-07T11:59:23.429Z,5.93
2022-12-07T12:02:13.662Z,4.03
2022-12-07T12:04:53.507Z,4.03
2022-12-07T12:10:23.334Z,4.22
2022-12-07T12:16:19.738Z,4.20
2022-12-07T12:19:05.911Z,4.57
2022-12-07T12:21:34.528Z,4.85
2022-12-07T12:24:07.285Z,10.10
2022-12-07T12:26:39.462Z,2.65
2022-12-07T12:29:21.433Z,2.45
2022-12-07T12:32:08.178Z,2.50
2022-12-07T12:34:50.064Z,2.45
2022-12-07T12:37:41.965Z,2.67
2022-12-07T12:40:46.882Z,2.15
2022-12-07T12:43:49.897Z,2.28
2022-12-07T12:46:58.409Z,2.05
2022-12-07T12:49:37.748Z,2.05
2022-12-07T12:52:50.598Z,2.28
2022-12-07T12:55:46.363Z,1.77
2022-12-07T12:58:42.000Z,1.77
2022-12-07T13:01:49.476Z,1.63
2022-12-07T13:04:52.726Z,2.20
2022-12-07T13:07:54.510Z,1.85
2022-12-07T13:10:30.298Z,1.60
2022-12-07T13:12:59.243Z,1.35
2022-12-07T13:15:34.966Z,1.73
2022-12-07T13:18:05.815Z,2.13
2022-12-07T13:20:53.492Z,1.75
2022-12-07T13:23:28.558Z,1.33
2022-12-07T13:28:48.496Z,1.40
2022-12-07T13:31:36.093Z,1.17
2022-12-07T13:34:05.416Z,1.40
2022-12-07T13:36:39.687Z,1.10
2022-12-07T13:39:20.832Z,1.40
2022-12-07T13:41:53.769Z,1.02
2022-12-07T13:44:22.753Z,1.25
2022-12-07T13:47:05.819Z,0.90
2022-12-07T13:49:40.365Z,1.02
2022-12-07T13:52:17.839Z,1.52
2022-12-07T13:54:47.599Z,1.65
2022-12-07T13:57:15.776Z,2.03
2022-12-07T13:59:44.699Z,1.95
2022-12-07T14:02:22.368Z,1.85
2022-12-07T14:04:52.724Z,1.90
2022-12-07T14:07:25.646Z,2.40
2022-12-07T14:09:59.705Z,1.25
2022-12-07T14:12:30.526Z,1.10
2022-12-07T14:15:00.689Z,1.42
2022-12-07T14:17:30.030Z,1.75
2022-12-07T14:20:00.907Z,1.50
2022-12-07T14:22:38.802Z,3.20
2022-12-07T14:25:27.783Z,1.33
2022-12-07T14:27:59.181Z,1.60
2022-12-07T14:30:30.038Z,1.63
2022-12-07T14:33:01.615Z,1.55
2022-12-07T14:35:30.455Z,1.58
2022-12-07T14:38:00.304Z,1.40
2022-12-07T14:40:30.207Z,1.70
2022-12-07T14:43:02.104Z,1.35
2022-12-07T14:45:30.847Z,1.60
2022-12-07T14:53:46.500Z,3.08
2022-12-07T14:56:16.775Z,3.33
2022-12-07T14:58:44.951Z,3.45
2022-12-07T15:01:13.098Z,2.55
2022-12-07T15:03:41.304Z,3.15
2022-12-07T15:06:15.337Z,1.60
2022-12-07T15:08:45.464Z,2.50
2022-12-07T15:11:15.348Z,2.28
2022-12-07T15:14:00.981Z,2.35
2022-12-07T15:19:27.815Z,4.50
2022-12-07T15:21:57.647Z,3.80
2022-12-07T15:24:27.162Z,3.63
2022-12-07T15:26:56.625Z,2.50
2022-12-07T15:29:24.981Z,2.20
2022-12-07T15:31:56.509Z,3.10
2022-12-07T15:34:27.475Z,3.08
2022-12-07T15:36:56.485Z,2.67
2022-12-07T15:39:26.476Z,3.58
2022-12-07T15:41:54.949Z,3.45
2022-12-07T15:44:40.572Z,3.22
2022-12-07T15:49:36.928Z,5.22
2022-12-07T15:52:05.253Z,3.72
2022-12-07T15:54:34.708Z,3.28
2022-12-07T15:57:02.854Z,3.10
2022-12-07T15:59:31.599Z,3.00
2022-12-07T16:02:00.218Z,3.63
2022-12-07T16:04:30.085Z,3.65
2022-12-07T16:06:58.433Z,3.53
2022-12-07T16:09:27.752Z,3.85
2022-12-07T16:11:57.451Z,3.85
2022-12-07T16:14:26.063Z,4.40
2022-12-07T16:16:54.373Z,3.63
2022-12-07T16:19:22.600Z,2.83
2022-12-07T16:21:50.940Z,2.78
2022-12-07T16:24:19.228Z,3.22
2022-12-07T16:26:50.448Z,3.88
2022-12-07T16:29:22.268Z,4.18
2022-12-07T16:31:51.492Z,2.78
2022-12-07T16:34:20.292Z,2.40
2022-12-07T16:37:06.519Z,2.17
2022-12-07T16:39:36.197Z,1.90
2022-12-07T16:42:05.618Z,2.83
2022-12-07T16:44:35.789Z,2.75
2022-12-07T16:47:04.148Z,2.35
2022-12-07T16:49:32.495Z,2.15
2022-12-07T16:52:19.366Z,2.60
2022-12-07T16:54:49.045Z,2.17
2022-12-07T16:57:22.392Z,2.95
2022-12-07T16:59:54.448Z,2.08
2022-12-07T17:02:22.696Z,2.17
2022-12-07T17:04:51.058Z,2.10
2022-12-07T17:07:19.329Z,2.47
2022-12-07T17:09:49.615Z,2.20
2022-12-07T17:12:19.155Z,3.22
2022-12-07T17:15:04.912Z,3.00
2022-12-07T17:17:34.738Z,3.03
2022-12-07T17:20:02.948Z,3.90
2022-12-07T17:22:31.274Z,3.90
2022-12-07T17:24:59.544Z,3.67
2022-12-07T17:27:27.956Z,4.05
2022-12-07T17:29:56.160Z,5.00
2022-12-07T17:32:24.407Z,5.07
2022-12-07T17:34:53.977Z,4.80
2022-12-07T17:37:22.069Z,4.57
2022-12-07T17:39:50.370Z,3.45
2022-12-07T17:42:36.155Z,3.55
2022-12-07T17:45:06.030Z,4.57
2022-12-07T17:47:37.319Z,3.85
2022-12-07T17:50:09.047Z,3.70
2022-12-07T17:52:57.932Z,3.95
2022-12-07T17:55:26.675Z,3.88
2022-12-07T17:57:54.953Z,4.68
2022-12-07T18:00:23.388Z,3.55
2022-12-07T18:02:51.724Z,4.88
2022-12-07T18:05:21.453Z,5.05
2022-12-07T18:07:50.740Z,5.95
2022-12-07T18:10:19.906Z,6.05
2022-12-07T18:12:52.074Z,5.72
2022-12-07T18:15:20.846Z,4.90
2022-12-07T18:17:49.342Z,5.38
2022-12-07T18:20:17.813Z,4.63
2022-12-07T18:22:47.462Z,5.75
2022-12-07T18:25:15.651Z,5.53
2022-12-07T18:27:44.442Z,5.32
2022-12-07T18:30:13.786Z,5.35
2022-12-07T18:32:41.908Z,4.93
2022-12-07T18:35:10.638Z,5.68
2022-12-07T18:37:39.227Z,5.15
2022-12-07T18:40:11.120Z,5.13
2022-12-07T18:42:39.974Z,5.38
2022-12-07T18:45:09.707Z,5.20
2022-12-07T18:47:38.083Z,5.43
2022-12-07T18:50:07.930Z,5.10
2022-12-07T18:52:36.407Z,6.65
2022-12-07T18:55:06.240Z,6.95
2022-12-07T18:57:36.306Z,6.28
2022-12-07T19:00:06.429Z,6.43
2022-12-07T19:02:37.766Z,6.10
2022-12-07T19:05:07.255Z,6.55
2022-12-07T19:07:35.855Z,5.82
2022-12-07T19:10:04.854Z,7.20
2022-12-07T19:12:33.256Z,7.20
2022-12-07T19:15:03.786Z,7.93
2022-12-07T19:17:32.788Z,7.30
2022-12-07T19:20:01.310Z,6.47
2022-12-07T19:22:30.115Z,6.60
2022-12-07T19:24:58.537Z,6.20
2022-12-07T19:27:27.363Z,7.25
2022-12-07T19:29:55.654Z,6.38
2022-12-07T19:32:25.500Z,7.22
2022-12-07T19:34:54.624Z,6.55
2022-12-07T19:37:23.200Z,7.57
2022-12-07T19:39:52.577Z,7.15
2022-12-07T19:42:20.848Z,8.13
2022-12-07T19:44:49.260Z,8.85
2022-12-07T19:47:18.597Z,9.75
2022-12-07T19:49:51.518Z,9.88
2022-12-07T19:52:21.374Z,9.32
2022-12-07T19:54:49.622Z,9.85
2022-12-07T19:57:18.327Z,9.43
2022-12-07T19:59:47.493Z,10.25
2022-12-07T20:02:16.457Z,10.35
2022-12-07T20:04:45.241Z,9.52
2022-12-07T20:07:15.106Z,10.55
2022-12-07T20:09:43.276Z,10.68
2022-12-07T20:12:29.655Z,11.18
2022-12-07T20:14:59.324Z,10.55
2022-12-07T20:17:27.745Z,10.10
2022-12-07T20:19:56.157Z,11.38
2022-12-07T20:22:25.701Z,11.07
2022-12-07T20:24:54.163Z,10.93
2022-12-07T20:27:22.546Z,12.77
2022-12-07T20:29:51.035Z,11.82
2022-12-07T20:32:19.336Z,10.75
2022-12-07T20:34:53.225Z,11.18
2022-12-07T20:37:21.754Z,12.03
2022-12-07T20:39:51.392Z,11.18
2022-12-07T20:42:36.995Z,11.85
2022-12-07T20:45:06.590Z,12.40
2022-12-07T20:47:35.196Z,12.60
2022-12-07T20:50:04.349Z,12.50
2022-12-07T20:52:32.767Z,13.40
2022-12-07T20:55:02.840Z,13.18
2022-12-07T20:57:31.488Z,13.43
2022-12-07T21:00:03.833Z,16.23
2022-12-07T21:02:32.037Z,14.40
2022-12-07T21:05:00.680Z,12.90
2022-12-07T21:07:28.905Z,13.77
2022-12-07T21:09:57.045Z,14.18
2022-12-07T21:12:26.808Z,11.77
2022-12-07T21:14:55.163Z,11.73
2022-12-07T21:17:23.823Z,10.55
2022-12-07T21:19:54.055Z,13.10
2022-12-07T21:22:22.143Z,12.25
2022-12-07T21:24:50.309Z,10.38
2022-12-07T21:27:18.563Z,12.48
2022-12-07T21:29:53.910Z,11.35
2022-12-07T21:32:22.695Z,11.73
2022-12-07T21:34:51.028Z,10.75
2022-12-07T21:37:19.127Z,12.23
2022-12-07T21:39:47.345Z,11.57
2022-12-07T21:42:15.462Z,9.32
2022-12-07T21:44:43.714Z,12.95
2022-12-07T21:47:13.167Z,11.50
2022-12-07T21:49:41.691Z,12.32
2022-12-07T21:52:10.242Z,12.30
2022-12-07T21:54:40.415Z,12.38
2022-12-07T21:57:08.672Z,13.45
2022-12-07T21:59:38.109Z,13.90
2022-12-07T22:02:06.463Z,15.68
2022-12-07T22:04:35.990Z,14.25
2022-12-07T22:07:04.127Z,15.88
2022-12-07T22:09:32.462Z,12.38
2022-12-07T22:12:00.543Z,14.90
2022-12-07T22:14:46.588Z,15.18
2022-12-07T22:17:14.753Z,14.43
2022-12-07T22:19:44.615Z,14.35
2022-12-07T22:22:16.036Z,14.60
2022-12-07T22:24:45.451Z,13.18
2022-12-07T22:27:13.676Z,12.13
2022-12-07T22:29:42.099Z,14.43
2022-12-07T22:32:39.783Z,15.85
2022-12-07T22:35:00.038Z,14.98
2022-12-07T22:37:29.216Z,15.10
2022-12-07T22:39:57.267Z,16.08
2022-12-07T22:42:26.648Z,15.43
2022-12-07T22:44:55.194Z,14.73
2022-12-07T22:47:23.553Z,15.05
2022-12-07T22:49:52.562Z,13.07
2022-12-07T22:52:22.699Z,14.47
2022-12-07T22:54:50.869Z,14.52
2022-12-07T22:57:19.625Z,13.95
2022-12-07T22:59:47.924Z,14.48
2022-12-07T23:02:16.059Z,16.00
2022-12-07T23:04:44.362Z,14.30
2022-12-07T23:07:12.844Z,14.20
2022-12-07T23:09:42.366Z,15.43
2022-12-07T23:12:28.789Z,15.18
2022-12-07T23:14:57.039Z,12.50
2022-12-07T23:17:25.402Z,13.20
2022-12-07T23:19:55.983Z,14.30
2022-12-07T23:22:25.143Z,15.38
2022-12-07T23:24:55.123Z,16.23
2022-12-07T23:27:23.827Z,15.82
2022-12-07T23:29:52.011Z,14.88
2022-12-07T23:32:20.028Z,15.57
2022-12-07T23:34:48.139Z,14.98
2022-12-07T23:37:16.219Z,15.20
2022-12-07T23:39:44.427Z,15.30
2022-12-07T23:42:13.797Z,15.18
2022-12-07T23:44:41.894Z,14.07
2022-12-07T23:47:11.285Z,13.18
2022-12-07T23:49:39.620Z,14.93
2022-12-07T23:52:08.682Z,15.10
2022-12-07T23:54:39.595Z,15.98
2022-12-07T23:57:11.545Z,13.70
2022-12-07T23:59:41.082Z,16.20
